createdAt,value
2023-01-27T00:01:07.665Z,31.57
2023-01-27T00:03:35.930Z,34.23
2023-01-27T00:06:06.451Z,38.87
2023-01-27T00:08:35.846Z,30.23
2023-01-27T00:11:20.930Z,30.27
2023-01-27T00:13:49.029Z,33.67
2023-01-27T00:16:17.008Z,29.30
2023-01-27T00:18:45.014Z,35.33
2023-01-27T00:21:30.190Z,43.43
2023-01-27T00:24:22.206Z,33.13
2023-01-27T00:26:50.111Z,32.63
2023-01-27T00:29:19.566Z,34.57
2023-01-27T00:32:04.923Z,38.00
2023-01-27T00:34:32.755Z,39.30
2023-01-27T00:37:00.666Z,34.73
2023-01-27T00:39:30.212Z,38.97
2023-01-27T00:41:58.107Z,37.27
2023-01-27T00:44:26.159Z,39.97
2023-01-27T00:46:54.061Z,35.93
2023-01-27T00:49:21.975Z,34.47
2023-01-27T00:51:49.947Z,36.17
2023-01-27T00:54:18.033Z,34.47
2023-01-27T00:56:48.738Z,38.20
2023-01-27T00:59:16.597Z,35.87
2023-01-27T01:01:46.286Z,37.13
2023-01-27T01:04:14.164Z,35.87
2023-01-27T01:06:42.147Z,36.27
2023-01-27T01:09:10.897Z,33.23
2023-01-27T01:11:38.755Z,37.97
2023-01-27T01:14:07.948Z,31.90
2023-01-27T01:16:36.425Z,35.63
2023-01-27T01:19:04.331Z,37.20
2023-01-27T01:21:32.207Z,34.93
2023-01-27T01:24:00.088Z,38.80
2023-01-27T01:26:27.970Z,40.33
2023-01-27T01:28:55.997Z,38.17
2023-01-27T01:31:25.209Z,39.10
2023-01-27T01:33:53.022Z,37.83
2023-01-27T01:36:21.852Z,37.33
2023-01-27T01:38:50.160Z,37.10
2023-01-27T01:41:20.354Z,37.20
2023-01-27T01:43:48.592Z,39.93
2023-01-27T01:46:17.133Z,35.13
2023-01-27T01:48:49.487Z,34.83
2023-01-27T01:51:22.415Z,33.03
2023-01-27T01:53:54.214Z,33.27
2023-01-27T01:56:25.111Z,41.23
2023-01-27T01:58:55.148Z,36.37
2023-01-27T02:01:23.039Z,33.60
2023-01-27T02:04:00.500Z,38.10
2023-01-27T02:06:29.415Z,29.70
2023-01-27T02:08:58.757Z,31.10
2023-01-27T02:11:26.628Z,32.00
2023-01-27T02:13:54.597Z,26.33
2023-01-27T02:16:22.437Z,29.47
2023-01-27T02:18:50.623Z,30.50
2023-01-27T02:21:19.963Z,32.20
2023-01-27T02:23:56.556Z,35.97
2023-01-27T02:26:30.309Z,34.17
2023-01-27T02:29:01.310Z,36.07
2023-01-27T02:31:31.112Z,33.03
2023-01-27T02:34:06.880Z,31.97
2023-01-27T02:36:41.332Z,31.77
2023-01-27T02:39:14.172Z,35.50
2023-01-27T02:41:46.954Z,33.17
2023-01-27T02:44:14.906Z,34.27
2023-01-27T02:46:42.738Z,34.63
2023-01-27T02:49:10.723Z,35.60
2023-01-27T02:51:39.334Z,31.70
2023-01-27T02:54:07.627Z,27.93
2023-01-27T02:56:35.560Z,29.07
2023-01-27T02:59:05.418Z,31.27
2023-01-27T03:01:37.937Z,28.13
2023-01-27T03:04:06.102Z,24.87
2023-01-27T03:06:35.192Z,28.73
2023-01-27T03:09:03.167Z,22.13
2023-01-27T03:11:48.563Z,28.33
2023-01-27T03:14:18.153Z,26.70
2023-01-27T03:17:05.886Z,23.90
2023-01-27T03:19:34.002Z,22.67
2023-01-27T03:22:03.219Z,24.13
2023-01-27T03:24:33.560Z,23.33
2023-01-27T03:27:06.270Z,25.67
2023-01-27T03:29:55.842Z,24.20
2023-01-27T03:32:25.329Z,25.40
2023-01-27T03:35:14.541Z,20.97
2023-01-27T03:38:01.705Z,18.50
2023-01-27T03:40:47.020Z,23.27
2023-01-27T03:43:32.396Z,22.13
2023-01-27T03:46:17.949Z,20.83
2023-01-27T03:48:49.576Z,22.97
2023-01-27T03:51:18.472Z,22.60
2023-01-27T03:53:46.317Z,22.80
2023-01-27T03:56:14.866Z,22.50
2023-01-27T03:58:43.450Z,19.20
2023-01-27T04:01:16.738Z,22.87
2023-01-27T04:04:02.601Z,21.40
2023-01-27T04:06:50.591Z,21.83
2023-01-27T04:09:23.313Z,18.93
2023-01-27T04:11:58.713Z,26.13
2023-01-27T04:14:30.073Z,20.70
2023-01-27T04:17:04.174Z,23.80
2023-01-27T04:19:32.473Z,19.80
2023-01-27T04:22:01.847Z,24.97
2023-01-27T04:24:30.424Z,21.57
2023-01-27T04:27:00.148Z,25.23
2023-01-27T04:29:30.063Z,21.13
2023-01-27T04:31:59.783Z,22.60
2023-01-27T04:34:28.908Z,23.17
2023-01-27T04:36:57.607Z,27.07
2023-01-27T04:39:26.418Z,22.03
2023-01-27T04:41:54.202Z,23.10
2023-01-27T04:44:22.125Z,26.13
2023-01-27T04:46:52.465Z,23.80
2023-01-27T04:49:22.345Z,24.83
2023-01-27T04:51:51.080Z,22.33
2023-01-27T04:54:19.227Z,22.17
2023-01-27T04:56:57.081Z,23.13
2023-01-27T04:59:25.221Z,21.63
2023-01-27T05:01:53.208Z,22.40
2023-01-27T05:04:22.578Z,21.00
2023-01-27T05:06:50.435Z,27.00
2023-01-27T05:09:19.381Z,19.60
2023-01-27T05:11:47.329Z,23.27
2023-01-27T05:14:15.419Z,24.20
2023-01-27T05:16:43.410Z,23.07
2023-01-27T05:19:11.284Z,26.83
2023-01-27T05:21:40.446Z,33.77
2023-01-27T05:24:08.515Z,28.53
2023-01-27T05:26:36.380Z,31.80
2023-01-27T05:29:04.225Z,31.27
2023-01-27T05:31:32.541Z,29.67
2023-01-27T05:34:03.654Z,32.87
2023-01-27T05:36:31.851Z,31.87
2023-01-27T05:39:01.199Z,31.27
2023-01-27T05:41:30.999Z,28.73
2023-01-27T05:43:58.963Z,30.73
2023-01-27T05:46:29.190Z,31.33
2023-01-27T05:48:59.846Z,28.97
2023-01-27T05:51:31.599Z,31.67
2023-01-27T05:54:00.885Z,33.80
2023-01-27T05:56:28.952Z,28.73
2023-01-27T05:58:58.627Z,33.00
2023-01-27T06:01:28.474Z,35.87
2023-01-27T06:03:56.750Z,34.23
2023-01-27T06:06:26.832Z,34.63
2023-01-27T06:08:55.466Z,32.47
2023-01-27T06:11:25.379Z,33.17
2023-01-27T06:13:54.603Z,33.87
2023-01-27T06:16:24.151Z,31.97
2023-01-27T06:18:52.327Z,34.10
2023-01-27T06:21:21.277Z,31.50
2023-01-27T06:23:49.249Z,31.23
2023-01-27T06:26:19.439Z,30.03
2023-01-27T06:28:49.029Z,32.67
2023-01-27T06:31:19.075Z,30.63
2023-01-27T06:33:47.117Z,31.73
2023-01-27T06:36:16.746Z,30.53
2023-01-27T06:38:45.161Z,36.73
2023-01-27T06:41:13.768Z,37.13
2023-01-27T06:43:41.575Z,34.67
2023-01-27T06:46:10.954Z,39.00
2023-01-27T06:48:39.137Z,34.03
2023-01-27T06:51:07.822Z,37.57
2023-01-27T06:53:37.538Z,37.97
2023-01-27T06:56:06.419Z,34.30
2023-01-27T06:58:34.380Z,31.17
2023-01-27T07:01:04.847Z,32.77
2023-01-27T07:06:01.073Z,33.50
2023-01-27T07:08:28.993Z,29.63
2023-01-27T07:10:56.831Z,38.33
2023-01-27T07:13:24.636Z,33.03
2023-01-27T07:15:55.891Z,39.90
2023-01-27T07:18:24.719Z,29.87
2023-01-27T07:20:54.061Z,36.30
2023-01-27T07:23:22.060Z,33.07
2023-01-27T07:25:50.044Z,34.93
2023-01-27T07:28:18.000Z,40.37
2023-01-27T07:30:46.115Z,33.30
2023-01-27T07:33:15.413Z,30.30
2023-01-27T07:35:43.732Z,32.10
2023-01-27T07:38:12.992Z,30.53
2023-01-27T07:40:40.898Z,27.27
2023-01-27T07:43:08.769Z,35.53
2023-01-27T07:45:36.876Z,25.67
2023-01-27T07:48:07.105Z,28.73
2023-01-27T07:50:35.705Z,28.13
2023-01-27T07:53:05.807Z,30.37
2023-01-27T07:55:35.220Z,32.73
2023-01-27T07:58:03.371Z,30.97
2023-01-27T08:00:31.651Z,27.60
2023-01-27T08:03:00.693Z,28.53
2023-01-27T08:05:30.150Z,28.43
2023-01-27T08:07:59.111Z,31.50
2023-01-27T08:10:27.590Z,29.30
2023-01-27T08:12:57.003Z,26.07
2023-01-27T08:15:24.932Z,33.03
2023-01-27T08:17:56.788Z,30.50
2023-01-27T08:20:25.528Z,26.13
2023-01-27T08:22:53.852Z,25.93
2023-01-27T08:25:22.156Z,24.07
2023-01-27T08:27:53.857Z,25.93
2023-01-27T08:30:23.860Z,23.03
2023-01-27T08:32:51.768Z,20.50
2023-01-27T08:35:19.708Z,20.83
2023-01-27T08:37:48.668Z,20.40
2023-01-27T08:40:17.595Z,23.87
2023-01-27T08:42:45.466Z,22.00
2023-01-27T08:45:13.651Z,22.43
2023-01-27T08:47:42.875Z,23.93
2023-01-27T08:50:12.411Z,18.43
2023-01-27T08:52:40.645Z,17.93
2023-01-27T08:55:08.746Z,17.03
2023-01-27T08:57:37.185Z,17.97
2023-01-27T09:00:06.945Z,18.83
2023-01-27T09:02:36.005Z,18.60
2023-01-27T09:05:06.918Z,20.93
2023-01-27T09:07:35.380Z,23.60
2023-01-27T09:10:14.248Z,21.10
2023-01-27T09:12:44.054Z,29.43
2023-01-27T09:15:12.872Z,21.67
2023-01-27T09:17:41.456Z,21.80
2023-01-27T09:20:13.203Z,19.80
2023-01-27T09:22:42.417Z,20.30
2023-01-27T09:25:15.318Z,20.20
2023-01-27T09:27:43.332Z,21.60
2023-01-27T09:30:13.525Z,21.63
2023-01-27T09:32:41.868Z,18.33
2023-01-27T09:35:11.785Z,18.40
2023-01-27T09:37:45.183Z,23.27
2023-01-27T09:40:23.656Z,19.77
2023-01-27T09:43:11.189Z,22.03
2023-01-27T09:45:51.899Z,18.33
2023-01-27T09:48:37.914Z,22.40
2023-01-27T09:51:14.332Z,20.63
2023-01-27T09:54:08.088Z,27.60
2023-01-27T09:56:47.859Z,19.67
2023-01-27T09:59:29.070Z,22.30
2023-01-27T10:02:09.008Z,20.97
2023-01-27T10:04:59.858Z,22.87
2023-01-27T10:07:56.899Z,21.80
2023-01-27T10:10:41.370Z,22.00
2023-01-27T10:13:18.425Z,23.80
2023-01-27T10:15:58.234Z,19.20
2023-01-27T10:18:41.407Z,22.70
2023-01-27T10:21:19.238Z,21.90
2023-01-27T10:24:00.467Z,24.53
2023-01-27T10:26:33.279Z,24.10
2023-01-27T10:29:09.567Z,25.73
2023-01-27T10:31:39.127Z,25.13
2023-01-27T10:34:16.349Z,20.87
2023-01-27T10:36:54.396Z,24.07
2023-01-27T10:39:33.461Z,25.87
2023-01-27T10:42:11.085Z,24.77
2023-01-27T10:44:50.860Z,22.27
2023-01-27T10:47:33.750Z,24.10
2023-01-27T10:50:08.222Z,25.03
2023-01-27T10:52:39.867Z,26.37
2023-01-27T10:55:17.413Z,30.67
2023-01-27T10:57:51.830Z,26.93
2023-01-27T11:01:18.145Z,25.77
2023-01-27T11:03:26.551Z,26.17
2023-01-27T11:05:59.315Z,27.87
2023-01-27T11:08:32.524Z,23.83
2023-01-27T11:11:24.355Z,28.03
2023-01-27T11:14:02.670Z,27.33
2023-01-27T11:16:35.553Z,23.77
2023-01-27T11:19:15.065Z,24.57
2023-01-27T11:21:43.248Z,23.03
2023-01-27T11:24:24.595Z,23.60
2023-01-27T11:27:01.728Z,25.33
2023-01-27T11:29:37.142Z,24.37
2023-01-27T11:32:16.539Z,23.23
2023-01-27T11:34:50.470Z,24.87
2023-01-27T11:37:22.787Z,20.20
2023-01-27T11:39:50.838Z,26.43
2023-01-27T11:42:21.316Z,23.13
2023-01-27T11:44:56.102Z,21.33
2023-01-27T11:47:28.322Z,21.53
2023-01-27T11:49:58.249Z,25.70
2023-01-27T11:52:28.959Z,22.60
2023-01-27T11:55:06.473Z,25.13
2023-01-27T11:57:48.923Z,23.63
2023-01-27T12:00:24.111Z,23.47
2023-01-27T12:03:01.109Z,22.97
2023-01-27T12:05:35.194Z,20.23
2023-01-27T12:08:06.231Z,18.03
2023-01-27T12:10:38.038Z,22.93
2023-01-27T12:13:17.129Z,24.17
2023-01-27T12:15:50.427Z,22.63
2023-01-27T12:18:19.025Z,20.97
2023-01-27T12:20:48.609Z,23.90
2023-01-27T12:23:25.589Z,24.93
2023-01-27T12:25:56.225Z,25.30
2023-01-27T12:28:31.754Z,18.23
2023-01-27T12:31:08.192Z,21.60
2023-01-27T12:33:39.165Z,23.67
2023-01-27T12:36:16.577Z,19.57
2023-01-27T12:38:53.365Z,23.17
2023-01-27T12:41:24.868Z,21.83
2023-01-27T12:43:57.236Z,20.03
2023-01-27T12:46:27.221Z,26.37
2023-01-27T12:49:02.797Z,20.20
2023-01-27T12:51:41.189Z,18.87
2023-01-27T12:54:18.001Z,25.60
2023-01-27T12:56:46.495Z,22.57
2023-01-27T12:59:19.311Z,21.37
2023-01-27T13:02:01.033Z,20.60
2023-01-27T13:04:30.322Z,25.13
2023-01-27T13:07:07.403Z,21.83
2023-01-27T13:09:38.580Z,21.33
2023-01-27T13:12:17.727Z,24.23
2023-01-27T13:14:51.215Z,23.07
2023-01-27T13:17:31.964Z,20.57
2023-01-27T13:20:04.034Z,22.90
2023-01-27T13:22:39.111Z,22.80
2023-01-27T13:25:17.420Z,25.57
2023-01-27T13:27:47.655Z,23.63
2023-01-27T13:30:27.729Z,26.43
2023-01-27T13:33:02.198Z,24.83
2023-01-27T13:35:35.722Z,23.40
2023-01-27T13:38:13.515Z,27.77
2023-01-27T13:40:44.453Z,28.30
2023-01-27T13:43:19.987Z,24.87
2023-01-27T13:45:55.834Z,34.43
2023-01-27T13:48:29.055Z,29.50
2023-01-27T13:51:04.727Z,27.33
2023-01-27T13:53:37.401Z,25.77
2023-01-27T13:56:18.561Z,26.07
2023-01-27T13:58:56.105Z,25.83
2023-01-27T14:01:35.883Z,31.10
2023-01-27T14:04:24.142Z,26.83
2023-01-27T14:07:04.466Z,34.03
2023-01-27T14:09:46.927Z,28.87
2023-01-27T14:12:26.666Z,33.63
2023-01-27T14:15:04.943Z,30.90
2023-01-27T14:17:45.717Z,28.23
2023-01-27T14:20:51.414Z,28.03
2023-01-27T14:23:32.240Z,29.80
2023-01-27T14:26:12.635Z,32.63
2023-01-27T14:29:05.568Z,29.83
2023-01-27T14:31:47.402Z,27.30
2023-01-27T14:34:32.829Z,26.90
2023-01-27T14:37:11.573Z,32.97
2023-01-27T14:39:48.271Z,25.40
2023-01-27T14:42:26.316Z,29.37
2023-01-27T14:45:03.707Z,26.00
2023-01-27T14:47:37.512Z,25.20
2023-01-27T14:50:22.116Z,30.27
2023-01-27T14:52:59.217Z,25.23
2023-01-27T14:55:35.928Z,27.67
2023-01-27T14:58:29.486Z,25.27
2023-01-27T15:01:08.433Z,27.77
2023-01-27T15:03:50.349Z,21.77
2023-01-27T15:06:29.858Z,27.13
2023-01-27T15:09:10.452Z,26.60
2023-01-27T15:11:57.675Z,25.43
2023-01-27T15:14:58.413Z,26.97
2023-01-27T15:17:45.325Z,23.57
2023-01-27T15:20:31.972Z,24.30
2023-01-27T15:23:27.909Z,26.07
2023-01-27T15:26:00.328Z,23.40
2023-01-27T15:28:32.304Z,21.33
2023-01-27T15:31:11.428Z,24.57
2023-01-27T15:33:50.011Z,23.03
2023-01-27T15:36:31.829Z,27.50
2023-01-27T15:39:18.900Z,24.97
2023-01-27T15:42:11.805Z,23.17
2023-01-27T15:44:43.158Z,21.93
2023-01-27T15:47:14.613Z,22.87
2023-01-27T15:49:47.363Z,22.30
2023-01-27T15:52:29.701Z,21.50
2023-01-27T15:55:01.471Z,23.20
2023-01-27T15:57:34.056Z,22.77
2023-01-27T16:00:05.815Z,20.77
2023-01-27T16:02:45.116Z,23.23
2023-01-27T16:05:22.381Z,23.33
2023-01-27T16:07:53.896Z,23.57
2023-01-27T16:10:25.836Z,24.97
2023-01-27T16:13:16.276Z,20.23
2023-01-27T16:15:44.231Z,20.33
2023-01-27T16:18:27.748Z,21.53
2023-01-27T16:21:03.681Z,23.10
2023-01-27T16:23:42.606Z,22.47
2023-01-27T16:26:32.781Z,21.13
2023-01-27T16:29:22.212Z,19.37
2023-01-27T16:31:53.195Z,21.97
2023-01-27T16:34:26.068Z,21.23
2023-01-27T16:37:03.698Z,24.97
2023-01-27T16:39:43.566Z,25.03
2023-01-27T16:42:15.787Z,17.03
2023-01-27T16:44:46.877Z,21.40
2023-01-27T16:47:26.313Z,19.93
2023-01-27T16:49:56.187Z,22.53
2023-01-27T16:52:41.340Z,21.30
2023-01-27T16:55:21.935Z,26.20
2023-01-27T16:57:53.573Z,20.83
2023-01-27T17:00:24.220Z,20.83
2023-01-27T17:02:53.734Z,18.73
2023-01-27T17:05:21.980Z,20.67
2023-01-27T17:08:04.587Z,20.80
2023-01-27T17:10:35.114Z,24.10
2023-01-27T17:13:04.739Z,20.30
2023-01-27T17:15:37.991Z,20.40
2023-01-27T17:18:11.230Z,20.80
2023-01-27T17:20:41.611Z,21.07
2023-01-27T17:23:22.867Z,20.87
2023-01-27T17:25:51.664Z,20.17
2023-01-27T17:28:27.053Z,23.23
2023-01-27T17:31:06.303Z,23.63
2023-01-27T17:33:37.530Z,19.03
2023-01-27T17:36:10.975Z,20.30
2023-01-27T17:38:46.320Z,23.93
2023-01-27T17:41:29.913Z,19.87
2023-01-27T17:44:01.738Z,16.53
2023-01-27T17:46:33.029Z,18.53
2023-01-27T17:49:05.052Z,22.93
2023-01-27T17:51:38.644Z,21.90
2023-01-27T17:54:20.438Z,19.97
2023-01-27T17:56:51.823Z,20.40
2023-01-27T17:59:23.102Z,25.57
2023-01-27T18:01:55.412Z,28.70
2023-01-27T18:04:25.059Z,21.07
2023-01-27T18:06:53.752Z,20.20
2023-01-27T18:09:28.501Z,19.30
2023-01-27T18:11:59.576Z,21.67
2023-01-27T18:14:33.983Z,21.57
2023-01-27T18:17:04.932Z,23.13
2023-01-27T18:19:33.696Z,23.20
2023-01-27T18:22:11.945Z,21.77
2023-01-27T18:24:41.286Z,21.40
2023-01-27T18:27:41.338Z,22.40
2023-01-27T18:30:16.508Z,20.57
2023-01-27T18:32:48.499Z,22.27
2023-01-27T18:35:26.563Z,23.70
2023-01-27T18:37:56.886Z,20.70
2023-01-27T18:40:31.365Z,22.83
2023-01-27T18:42:59.682Z,23.93
2023-01-27T18:45:29.449Z,19.77
2023-01-27T18:47:59.468Z,23.20
2023-01-27T18:50:28.742Z,28.60
2023-01-27T18:52:56.910Z,26.20
2023-01-27T18:55:26.772Z,24.77
2023-01-27T18:57:56.429Z,29.00
2023-01-27T19:00:26.986Z,23.50
2023-01-27T19:02:59.265Z,22.77
2023-01-27T19:05:29.366Z,25.63
2023-01-27T19:07:58.031Z,19.60
2023-01-27T19:10:28.444Z,43.23
2023-01-27T19:12:58.556Z,31.57
2023-01-27T19:15:27.882Z,23.17
2023-01-27T19:17:59.672Z,21.63
2023-01-27T19:20:29.755Z,23.43
2023-01-27T19:22:59.535Z,24.17
2023-01-27T19:25:31.217Z,22.97
2023-01-27T19:28:03.882Z,21.73
2023-01-27T19:30:36.255Z,23.90
2023-01-27T19:33:14.364Z,27.03
2023-01-27T19:35:43.608Z,24.20
2023-01-27T19:38:12.195Z,24.10
2023-01-27T19:40:40.777Z,25.50
2023-01-27T19:43:13.303Z,25.40
2023-01-27T19:45:43.227Z,24.03
2023-01-27T19:48:17.392Z,22.33
2023-01-27T19:50:46.185Z,20.27
2023-01-27T19:53:17.301Z,29.00
2023-01-27T19:55:48.163Z,25.20
2023-01-27T19:58:25.081Z,25.53
2023-01-27T20:00:54.855Z,23.17
2023-01-27T20:03:25.147Z,21.93
2023-01-27T20:05:56.220Z,19.33
2023-01-27T20:08:24.672Z,23.50
2023-01-27T20:10:55.220Z,22.37
2023-01-27T20:13:23.799Z,21.10
2023-01-27T20:15:52.441Z,24.20
2023-01-27T20:18:22.798Z,22.83
2023-01-27T20:20:52.977Z,21.00
2023-01-27T20:23:21.451Z,24.40
2023-01-27T20:25:49.348Z,22.17
2023-01-27T20:28:17.232Z,21.37
2023-01-27T20:30:45.134Z,20.57
2023-01-27T20:33:14.708Z,24.10
2023-01-27T20:35:42.713Z,21.70
2023-01-27T20:38:11.911Z,21.20
2023-01-27T20:40:39.918Z,23.63
2023-01-27T20:43:07.806Z,27.33
2023-01-27T20:45:37.173Z,25.17
2023-01-27T20:48:05.612Z,27.00
2023-01-27T20:50:33.465Z,38.67
2023-01-27T20:53:01.407Z,21.40
2023-01-27T20:55:31.507Z,17.80
2023-01-27T20:58:01.246Z,18.00
2023-01-27T21:00:29.146Z,20.97
2023-01-27T21:02:57.695Z,21.27
2023-01-27T21:05:25.634Z,16.13
2023-01-27T21:07:53.464Z,17.57
2023-01-27T21:10:21.266Z,19.27
2023-01-27T21:12:50.483Z,19.37
2023-01-27T21:15:18.358Z,18.17
2023-01-27T21:17:46.257Z,19.83
2023-01-27T21:20:14.324Z,18.97
2023-01-27T21:22:42.208Z,16.63
2023-01-27T21:25:10.482Z,16.53
2023-01-27T21:27:38.401Z,16.23
2023-01-27T21:30:09.280Z,19.60
2023-01-27T21:32:37.311Z,18.53
2023-01-27T21:35:05.984Z,19.20
2023-01-27T21:37:35.969Z,17.77
2023-01-27T21:40:04.267Z,17.03
2023-01-27T21:42:49.559Z,15.27
2023-01-27T21:45:20.738Z,18.23
2023-01-27T21:47:48.655Z,16.63
2023-01-27T21:50:17.468Z,17.70
2023-01-27T21:52:47.267Z,15.70
2023-01-27T21:55:17.647Z,16.97
2023-01-27T21:57:48.412Z,14.07
2023-01-27T22:00:19.982Z,15.47
2023-01-27T22:02:55.629Z,19.97
2023-01-27T22:05:23.918Z,19.10
2023-01-27T22:07:52.869Z,17.17
2023-01-27T22:10:23.625Z,16.47
2023-01-27T22:12:52.433Z,25.20
2023-01-27T22:15:21.110Z,16.93
2023-01-27T22:17:49.033Z,16.37
2023-01-27T22:20:19.254Z,19.30
2023-01-27T22:22:47.629Z,18.03
2023-01-27T22:25:16.896Z,16.97
2023-01-27T22:27:45.056Z,16.00
2023-01-27T22:30:15.759Z,15.90
2023-01-27T22:32:44.239Z,19.17
2023-01-27T22:35:15.403Z,14.20
2023-01-27T22:37:45.251Z,15.50
2023-01-27T22:40:13.878Z,14.83
2023-01-27T22:42:41.854Z,20.07
2023-01-27T22:45:11.353Z,16.40
2023-01-27T22:47:39.274Z,15.33
2023-01-27T22:50:08.167Z,15.97
2023-01-27T22:52:36.974Z,13.53
2023-01-27T22:55:07.089Z,18.60
2023-01-27T22:57:35.204Z,14.20
2023-01-27T23:00:03.416Z,19.00
2023-01-27T23:02:31.394Z,15.00
2023-01-27T23:04:59.871Z,16.77
2023-01-27T23:07:27.759Z,14.70
2023-01-27T23:09:55.626Z,13.10
2023-01-27T23:12:24.958Z,13.73
2023-01-27T23:14:52.958Z,12.30
2023-01-27T23:17:20.804Z,12.77
2023-01-27T23:19:48.708Z,13.30
2023-01-27T23:22:16.666Z,14.43
2023-01-27T23:24:44.641Z,12.53
2023-01-27T23:27:12.625Z,11.77
2023-01-27T23:29:41.841Z,13.70
2023-01-27T23:32:09.796Z,13.10
2023-01-27T23:34:37.852Z,15.63
2023-01-27T23:37:05.781Z,11.63
2023-01-27T23:39:33.646Z,12.67
2023-01-27T23:42:01.553Z,13.50
2023-01-27T23:44:29.427Z,13.90
2023-01-27T23:46:58.672Z,13.70
2023-01-27T23:49:26.652Z,12.10
2023-01-27T23:51:54.642Z,12.47
2023-01-27T23:54:22.475Z,12.33
2023-01-27T23:56:50.313Z,12.17
2023-01-27T23:59:18.295Z,11.57
